createdAt,value
2022-08-02T00:00:13.017Z,3.22
2022-08-02T00:02:39.722Z,2.90
2022-08-02T00:05:07.050Z,3.00
2022-08-02T00:07:37.707Z,3.37
2022-08-02T00:10:08.868Z,3.38
2022-08-02T00:12:35.601Z,3.22
2022-08-02T00:15:02.311Z,3.20
2022-08-02T00:17:29.079Z,3.65
2022-08-02T00:19:55.710Z,3.20
2022-08-02T00:22:22.362Z,3.22
2022-08-02T00:24:49.139Z,3.20
2022-08-02T00:27:15.730Z,4.20
2022-08-02T00:29:42.641Z,3.50
2022-08-02T00:32:19.515Z,3.93
2022-08-02T00:34:46.171Z,3.20
2022-08-02T00:37:12.803Z,3.35
2022-08-02T00:39:39.578Z,3.38
2022-08-02T00:42:06.377Z,3.75
2022-08-02T00:44:33.023Z,3.20
2022-08-02T00:47:00.137Z,3.20
2022-08-02T00:49:27.198Z,4.22
2022-08-02T00:51:53.847Z,3.33
2022-08-02T00:54:20.955Z,3.20
2022-08-02T00:56:50.147Z,3.63
2022-08-02T00:59:18.434Z,4.22
2022-08-02T01:01:57.676Z,4.82
2022-08-02T01:04:30.266Z,3.28
2022-08-02T01:07:12.333Z,3.92
2022-08-02T01:09:40.285Z,3.20
2022-08-02T01:12:07.548Z,3.70
2022-08-02T01:14:34.246Z,3.30
2022-08-02T01:17:19.850Z,3.00
2022-08-02T01:19:52.685Z,3.35
2022-08-02T01:22:59.572Z,3.23
2022-08-02T01:25:38.740Z,3.40
2022-08-02T01:28:30.087Z,3.88
2022-08-02T01:31:16.962Z,3.85
2022-08-02T01:33:57.830Z,3.40
2022-08-02T01:36:27.744Z,3.23
2022-08-02T01:38:54.943Z,4.75
2022-08-02T01:41:23.859Z,3.38
2022-08-02T01:43:53.941Z,3.83
2022-08-02T01:46:21.215Z,3.22
2022-08-02T01:48:48.659Z,3.50
2022-08-02T01:51:18.029Z,3.53
2022-08-02T01:53:48.546Z,3.22
2022-08-02T01:56:16.452Z,3.30
2022-08-02T01:58:44.095Z,4.53
2022-08-02T02:01:15.180Z,4.13
2022-08-02T02:03:46.212Z,3.67
2022-08-02T02:06:12.850Z,3.50
2022-08-02T02:08:41.825Z,3.60
2022-08-02T02:12:05.886Z,3.63
2022-08-02T02:13:58.675Z,3.83
2022-08-02T02:16:27.386Z,3.72
2022-08-02T02:18:54.614Z,3.92
2022-08-02T02:21:21.283Z,3.38
2022-08-02T02:23:47.917Z,3.30
2022-08-02T02:26:27.361Z,3.87
2022-08-02T02:29:02.535Z,5.93
2022-08-02T02:31:34.628Z,3.53
2022-08-02T02:34:03.782Z,3.75
2022-08-02T02:36:31.034Z,3.30
2022-08-02T02:39:00.114Z,3.40
2022-08-02T02:41:27.120Z,3.15
2022-08-02T02:43:58.893Z,4.05
2022-08-02T02:46:27.247Z,3.90
2022-08-02T02:48:54.682Z,3.40
2022-08-02T02:51:22.364Z,5.00
2022-08-02T02:54:30.740Z,3.40
2022-08-02T02:56:38.493Z,3.65
2022-08-02T02:59:05.311Z,4.05
2022-08-02T03:01:55.636Z,3.97
2022-08-02T03:04:18.966Z,3.60
2022-08-02T03:06:46.531Z,4.53
2022-08-02T03:09:13.393Z,4.82
2022-08-02T03:11:40.965Z,3.50
2022-08-02T03:14:11.695Z,4.72
2022-08-02T03:17:04.535Z,4.07
2022-08-02T03:19:33.311Z,4.25
2022-08-02T03:22:00.124Z,4.22
2022-08-02T03:24:27.940Z,4.43
2022-08-02T03:26:55.661Z,3.75
2022-08-02T03:29:22.313Z,3.63
2022-08-02T03:31:49.031Z,4.25
2022-08-02T03:34:15.725Z,4.35
2022-08-02T03:36:43.114Z,3.88
2022-08-02T03:39:11.031Z,5.30
2022-08-02T03:41:38.282Z,3.47
2022-08-02T03:44:06.705Z,4.88
2022-08-02T03:46:33.497Z,3.78
2022-08-02T03:49:00.725Z,4.03
2022-08-02T03:51:27.656Z,4.82
2022-08-02T03:53:54.685Z,4.00
2022-08-02T03:56:23.467Z,3.65
2022-08-02T03:58:50.277Z,3.63
2022-08-02T04:01:17.042Z,5.38
2022-08-02T04:03:43.977Z,3.35
2022-08-02T04:06:10.728Z,3.57
2022-08-02T04:08:38.642Z,3.50
2022-08-02T04:11:24.939Z,3.97
2022-08-02T04:13:51.923Z,3.80
2022-08-02T04:16:24.245Z,4.90
2022-08-02T04:19:15.017Z,3.63
2022-08-02T04:21:51.770Z,3.88
2022-08-02T04:24:33.495Z,3.83
2022-08-02T04:27:19.398Z,4.32
2022-08-02T04:29:49.089Z,3.30
2022-08-02T04:32:17.078Z,3.60
2022-08-02T04:35:18.170Z,5.05
2022-08-02T04:37:34.873Z,3.90
2022-08-02T04:40:01.538Z,4.20
2022-08-02T04:42:28.200Z,4.63
2022-08-02T04:44:54.870Z,4.07
2022-08-02T04:47:54.382Z,4.07
2022-08-02T04:50:08.887Z,4.07
2022-08-02T04:52:35.551Z,6.32
2022-08-02T04:55:02.184Z,3.60
2022-08-02T04:57:52.695Z,3.93
2022-08-02T05:00:20.477Z,4.10
2022-08-02T05:02:47.597Z,4.47
2022-08-02T05:05:14.550Z,4.95
2022-08-02T05:07:41.247Z,4.45
2022-08-02T05:10:08.249Z,4.93
2022-08-02T05:12:34.917Z,4.15
2022-08-02T05:15:01.620Z,3.90
2022-08-02T05:17:28.307Z,3.88
2022-08-02T05:19:54.963Z,4.00
2022-08-02T05:22:21.550Z,4.67
2022-08-02T05:24:48.180Z,3.80
2022-08-02T05:27:16.895Z,3.75
2022-08-02T05:29:53.661Z,3.53
2022-08-02T05:32:20.835Z,3.90
2022-08-02T05:34:50.423Z,3.43
2022-08-02T05:37:17.102Z,4.78
2022-08-02T05:39:55.385Z,3.83
2022-08-02T05:42:22.920Z,3.78
2022-08-02T05:44:49.571Z,4.55
2022-08-02T05:47:16.384Z,4.83
2022-08-02T05:49:43.126Z,5.65
2022-08-02T05:52:16.239Z,3.97
2022-08-02T05:55:09.948Z,4.55
2022-08-02T05:57:53.724Z,3.75
2022-08-02T06:00:21.269Z,5.63
2022-08-02T06:03:16.737Z,4.10
2022-08-02T06:05:51.493Z,4.43
2022-08-02T06:08:20.709Z,5.20
2022-08-02T06:10:48.621Z,5.22
2022-08-02T06:13:19.421Z,3.97
2022-08-02T06:15:53.328Z,4.10
2022-08-02T06:18:28.391Z,4.60
2022-08-02T06:21:03.811Z,4.63
2022-08-02T06:23:57.518Z,4.32
2022-08-02T06:26:26.880Z,5.07
2022-08-02T06:28:55.842Z,4.85
2022-08-02T06:31:22.619Z,5.32
2022-08-02T06:33:49.365Z,4.43
2022-08-02T06:36:27.541Z,4.78
2022-08-02T06:39:05.150Z,6.60
2022-08-02T06:41:42.347Z,5.25
2022-08-02T06:44:43.048Z,4.72
2022-08-02T06:47:09.881Z,4.80
2022-08-02T06:49:52.510Z,4.35
2022-08-02T06:52:29.602Z,4.93
2022-08-02T06:55:01.075Z,5.45
2022-08-02T06:57:28.640Z,6.65
2022-08-02T06:59:55.853Z,4.82
2022-08-02T07:02:22.854Z,5.88
2022-08-02T07:04:49.731Z,6.07
2022-08-02T07:07:16.381Z,4.28
2022-08-02T07:09:56.363Z,6.82
2022-08-02T07:12:27.747Z,6.93
2022-08-02T07:14:54.361Z,5.18
2022-08-02T07:17:20.971Z,4.47
2022-08-02T07:19:47.580Z,4.57
2022-08-02T07:22:14.314Z,4.65
2022-08-02T07:24:41.642Z,5.47
2022-08-02T07:27:11.775Z,4.60
2022-08-02T07:29:46.136Z,6.40
2022-08-02T07:32:18.039Z,7.18
2022-08-02T07:34:50.615Z,5.45
2022-08-02T07:37:36.137Z,4.28
2022-08-02T07:40:11.830Z,6.25
2022-08-02T07:42:40.519Z,5.67
2022-08-02T07:45:08.033Z,6.55
2022-08-02T07:47:38.220Z,5.25
2022-08-02T07:50:06.023Z,4.00
2022-08-02T07:52:32.642Z,4.90
2022-08-02T07:54:59.313Z,5.67
2022-08-02T07:57:25.920Z,5.65
2022-08-02T07:59:52.581Z,4.18
2022-08-02T08:02:19.245Z,6.55
2022-08-02T08:04:45.842Z,5.93
2022-08-02T08:07:12.449Z,4.93
2022-08-02T08:09:42.190Z,6.45
2022-08-02T08:12:10.216Z,4.00
2022-08-02T08:14:38.281Z,4.65
2022-08-02T08:17:06.535Z,4.28
2022-08-02T08:19:51.690Z,4.83
2022-08-02T08:22:19.941Z,8.80
2022-08-02T08:24:48.241Z,5.03
2022-08-02T08:27:15.864Z,4.43
2022-08-02T08:29:43.468Z,6.07
2022-08-02T08:32:17.241Z,4.77
2022-08-02T08:34:48.125Z,6.00
2022-08-02T08:37:17.807Z,5.03
2022-08-02T08:39:58.354Z,4.78
2022-08-02T08:42:30.033Z,4.72
2022-08-02T08:44:57.715Z,5.53
2022-08-02T08:47:34.361Z,5.65
2022-08-02T08:50:18.911Z,6.00
2022-08-02T08:53:04.228Z,6.50
2022-08-02T08:55:31.947Z,4.63
2022-08-02T08:58:00.314Z,5.10
2022-08-02T09:00:27.974Z,4.60
2022-08-02T09:02:54.584Z,5.60
2022-08-02T09:05:21.262Z,5.82
2022-08-02T09:07:51.731Z,5.90
2022-08-02T09:10:47.399Z,4.93
2022-08-02T09:13:31.235Z,4.88
2022-08-02T09:16:11.372Z,4.65
2022-08-02T09:18:42.102Z,5.88
2022-08-02T09:21:09.565Z,4.78
2022-08-02T09:23:38.249Z,3.67
2022-08-02T09:26:09.612Z,4.65
2022-08-02T09:28:38.544Z,4.95
2022-08-02T09:31:16.450Z,4.40
2022-08-02T09:33:45.246Z,6.13
2022-08-02T09:36:13.785Z,4.93
2022-08-02T09:38:41.782Z,4.47
2022-08-02T09:41:20.853Z,5.70
2022-08-02T09:43:52.419Z,5.00
2022-08-02T09:46:37.527Z,6.22
2022-08-02T09:49:10.511Z,5.07
2022-08-02T09:51:40.423Z,4.82
2022-08-02T09:54:09.866Z,4.97
2022-08-02T09:56:48.344Z,5.20
2022-08-02T09:59:16.208Z,4.75
2022-08-02T10:01:50.658Z,4.80
2022-08-02T10:04:27.241Z,5.88
2022-08-02T10:06:54.429Z,7.00
2022-08-02T10:09:22.070Z,5.10
2022-08-02T10:11:49.329Z,8.70
2022-08-02T10:14:16.397Z,8.33
2022-08-02T10:16:44.229Z,6.10
2022-08-02T10:19:11.362Z,6.50
2022-08-02T10:22:01.037Z,6.13
2022-08-02T10:24:29.419Z,6.40
2022-08-02T10:26:56.433Z,7.00
2022-08-02T10:29:53.394Z,5.68
2022-08-02T10:32:30.815Z,4.25
2022-08-02T10:35:18.215Z,4.40
2022-08-02T10:37:46.424Z,5.22
2022-08-02T10:40:26.991Z,8.07
2022-08-02T10:42:55.605Z,6.55
2022-08-02T10:45:22.975Z,6.47
2022-08-02T10:48:12.210Z,8.05
2022-08-02T10:50:48.044Z,4.75
2022-08-02T10:53:32.627Z,5.67
2022-08-02T10:56:01.776Z,4.28
2022-08-02T10:58:32.290Z,4.50
2022-08-02T11:01:04.154Z,5.50
2022-08-02T11:03:41.448Z,5.15
2022-08-02T11:06:25.605Z,4.63
2022-08-02T11:09:41.337Z,4.75
2022-08-02T11:12:10.914Z,4.90
2022-08-02T11:14:41.027Z,5.75
2022-08-02T11:17:13.645Z,5.35
2022-08-02T11:20:08.642Z,7.90
2022-08-02T11:22:35.809Z,5.60
2022-08-02T11:26:01.052Z,4.57
2022-08-02T11:28:23.035Z,5.15
2022-08-02T11:30:59.537Z,4.50
2022-08-02T11:33:36.754Z,5.00
2022-08-02T11:36:07.316Z,4.35
2022-08-02T11:38:34.182Z,7.32
2022-08-02T11:41:06.230Z,4.10
2022-08-02T11:43:37.222Z,6.10
2022-08-02T11:46:04.597Z,5.80
2022-08-02T11:48:37.669Z,4.40
2022-08-02T11:51:14.962Z,5.22
2022-08-02T11:53:46.401Z,5.15
2022-08-02T11:56:13.847Z,5.05
2022-08-02T11:59:20.844Z,4.80
2022-08-02T12:01:47.585Z,4.95
2022-08-02T12:04:22.531Z,6.05
2022-08-02T12:06:58.102Z,6.13
2022-08-02T12:09:26.853Z,5.43
2022-08-02T12:11:54.195Z,5.67
2022-08-02T12:14:23.582Z,4.03
2022-08-02T12:17:08.884Z,5.07
2022-08-02T12:19:36.270Z,6.97
2022-08-02T12:22:24.437Z,4.68
2022-08-02T12:24:56.508Z,7.20
2022-08-02T12:27:29.688Z,5.15
2022-08-02T12:30:02.635Z,7.05
2022-08-02T12:32:29.438Z,5.90
2022-08-02T12:35:25.990Z,6.18
2022-08-02T12:37:53.611Z,6.37
2022-08-02T12:40:27.125Z,9.15
2022-08-02T12:42:58.917Z,10.27
2022-08-02T12:45:26.984Z,11.95
2022-08-02T12:48:05.959Z,8.80
2022-08-02T12:50:37.196Z,11.77
2022-08-02T12:53:15.688Z,7.32
2022-08-02T12:56:01.845Z,7.45
2022-08-02T12:58:30.898Z,7.35
2022-08-02T13:01:00.839Z,6.63
2022-08-02T13:04:09.000Z,6.57
2022-08-02T13:06:42.010Z,6.93
2022-08-02T13:09:02.459Z,7.65
2022-08-02T13:11:29.353Z,8.40
2022-08-02T13:13:56.269Z,8.20
2022-08-02T13:16:30.771Z,5.40
2022-08-02T13:18:58.376Z,4.10
2022-08-02T13:21:41.072Z,4.93
2022-08-02T13:24:32.779Z,6.50
2022-08-02T13:27:04.673Z,6.00
2022-08-02T13:29:38.332Z,6.03
2022-08-02T13:32:05.357Z,8.40
2022-08-02T13:34:32.001Z,8.32
2022-08-02T13:36:58.676Z,5.65
2022-08-02T13:39:25.419Z,5.68
2022-08-02T13:41:52.039Z,6.30
2022-08-02T13:44:18.682Z,4.63
2022-08-02T13:46:46.099Z,4.65
2022-08-02T13:49:18.772Z,6.30
2022-08-02T13:51:47.446Z,4.22
2022-08-02T13:54:14.769Z,6.80
2022-08-02T13:56:41.519Z,9.15
2022-08-02T13:59:53.946Z,7.53
2022-08-02T14:01:56.580Z,6.03
2022-08-02T14:04:23.437Z,6.78
2022-08-02T14:06:50.228Z,5.43
2022-08-02T14:09:17.391Z,6.25
2022-08-02T14:11:45.247Z,4.93
2022-08-02T14:14:16.576Z,5.47
2022-08-02T14:16:45.266Z,5.50
2022-08-02T14:19:16.350Z,4.23
2022-08-02T14:21:48.042Z,6.63
2022-08-02T14:24:19.880Z,4.38
2022-08-02T14:26:47.352Z,5.00
2022-08-02T14:29:14.850Z,5.10
2022-08-02T14:31:44.347Z,5.43
2022-08-02T14:34:12.789Z,6.07
2022-08-02T14:36:39.496Z,4.45
2022-08-02T14:39:06.359Z,5.38
2022-08-02T14:41:58.437Z,4.60
2022-08-02T14:44:20.698Z,6.30
2022-08-02T14:46:47.466Z,4.45
2022-08-02T14:49:24.445Z,4.65
2022-08-02T14:51:56.347Z,4.05
2022-08-02T14:54:30.150Z,4.25
2022-08-02T14:57:02.727Z,5.27
2022-08-02T14:59:29.994Z,4.05
2022-08-02T15:01:57.253Z,3.97
2022-08-02T15:04:23.997Z,3.83
2022-08-02T15:06:50.960Z,6.18
2022-08-02T15:09:17.591Z,4.63
2022-08-02T15:11:47.168Z,4.25
2022-08-02T15:14:20.538Z,4.95
2022-08-02T15:16:58.121Z,4.38
2022-08-02T15:19:58.999Z,4.07
2022-08-02T15:22:16.916Z,5.13
2022-08-02T15:24:46.273Z,4.55
2022-08-02T15:27:15.945Z,3.75
2022-08-02T15:29:43.557Z,4.05
2022-08-02T15:32:10.857Z,5.35
2022-08-02T15:34:38.287Z,6.03
2022-08-02T15:37:05.044Z,16.13
2022-08-02T15:39:31.637Z,17.17
2022-08-02T15:41:58.303Z,12.05
2022-08-02T15:44:25.125Z,8.45
2022-08-02T15:46:53.334Z,7.53
2022-08-02T15:49:20.972Z,5.80
2022-08-02T15:51:47.741Z,5.03
2022-08-02T15:54:14.369Z,6.50
2022-08-02T15:56:41.005Z,6.80
2022-08-02T15:59:07.614Z,4.67
2022-08-02T16:01:37.964Z,6.28
2022-08-02T16:04:06.602Z,4.53
2022-08-02T16:06:34.818Z,5.43
2022-08-02T16:09:01.957Z,6.70
2022-08-02T16:11:28.695Z,4.07
2022-08-02T16:13:55.527Z,3.55
2022-08-02T16:16:34.034Z,5.93
2022-08-02T16:19:47.850Z,5.18
2022-08-02T16:21:48.737Z,4.18
2022-08-02T16:24:15.346Z,6.10
2022-08-02T16:26:42.343Z,5.90
2022-08-02T16:29:09.309Z,3.88
2022-08-02T16:31:41.648Z,5.50
2022-08-02T16:34:09.000Z,5.50
2022-08-02T16:36:35.600Z,5.00
2022-08-02T16:39:02.276Z,4.78
2022-08-02T16:41:51.925Z,5.75
2022-08-02T16:44:15.710Z,4.20
2022-08-02T16:46:45.175Z,5.70
2022-08-02T16:50:03.998Z,3.30
2022-08-02T16:51:59.111Z,7.22
2022-08-02T16:54:25.724Z,5.72
2022-08-02T16:56:53.244Z,4.95
2022-08-02T16:59:19.854Z,6.07
2022-08-02T17:02:03.127Z,5.57
2022-08-02T17:04:38.718Z,4.10
2022-08-02T17:07:11.225Z,5.93
2022-08-02T17:10:02.135Z,3.63
2022-08-02T17:12:29.441Z,5.90
2022-08-02T17:14:56.099Z,5.13
2022-08-02T17:17:33.789Z,4.70
2022-08-02T17:20:00.652Z,3.95
2022-08-02T17:22:27.298Z,4.97
2022-08-02T17:24:53.950Z,4.07
2022-08-02T17:27:20.589Z,3.90
2022-08-02T17:29:47.207Z,5.07
2022-08-02T17:32:15.520Z,4.95
2022-08-02T17:34:49.110Z,5.00
2022-08-02T17:37:26.421Z,4.75
2022-08-02T17:39:53.148Z,6.33
2022-08-02T17:42:23.270Z,4.65
2022-08-02T17:44:52.452Z,4.53
2022-08-02T17:47:19.277Z,4.43
2022-08-02T17:49:48.358Z,4.30
2022-08-02T17:52:51.867Z,4.93
2022-08-02T17:55:04.213Z,4.90
2022-08-02T17:57:57.821Z,3.38
2022-08-02T18:00:18.094Z,5.28
2022-08-02T18:02:52.989Z,4.50
2022-08-02T18:05:22.508Z,3.57
2022-08-02T18:07:53.022Z,5.65
2022-08-02T18:10:23.450Z,4.22
2022-08-02T18:12:53.414Z,4.30
2022-08-02T18:15:23.172Z,4.40
2022-08-02T18:17:50.620Z,3.40
2022-08-02T18:20:21.544Z,4.05
2022-08-02T18:22:48.240Z,4.43
2022-08-02T18:25:36.802Z,3.78
2022-08-02T18:28:09.106Z,4.22
2022-08-02T18:30:35.698Z,4.03
2022-08-02T18:33:54.329Z,5.53
2022-08-02T18:35:49.738Z,5.50
2022-08-02T18:38:17.622Z,5.53
2022-08-02T18:40:51.063Z,5.05
2022-08-02T18:43:18.419Z,5.23
2022-08-02T18:46:07.097Z,5.93
2022-08-02T18:48:31.620Z,5.55
2022-08-02T18:50:58.278Z,6.57
2022-08-02T18:56:20.405Z,5.70
2022-08-02T18:58:52.771Z,7.75
2022-08-02T19:01:32.723Z,8.40
2022-08-02T19:04:02.641Z,5.80
2022-08-02T19:06:29.762Z,8.90
2022-08-02T19:09:05.197Z,9.93
2022-08-02T19:11:38.489Z,7.28
2022-08-02T19:14:07.906Z,7.55
2022-08-02T19:16:37.427Z,8.43
2022-08-02T19:19:07.295Z,8.05
2022-08-02T19:22:18.266Z,6.27
2022-08-02T19:24:20.722Z,7.15
2022-08-02T19:26:51.091Z,7.78
2022-08-02T19:29:42.049Z,7.82
2022-08-02T19:32:42.694Z,7.90
2022-08-02T19:34:53.224Z,6.00
2022-08-02T19:37:19.853Z,5.55
2022-08-02T19:39:46.471Z,5.68
2022-08-02T19:42:14.895Z,7.85
2022-08-02T19:44:44.969Z,6.47
2022-08-02T19:47:12.187Z,5.70
2022-08-02T19:49:40.079Z,5.55
2022-08-02T19:52:20.582Z,6.18
2022-08-02T19:54:55.829Z,5.63
2022-08-02T19:57:24.957Z,6.30
2022-08-02T19:59:52.750Z,6.67
2022-08-02T20:02:21.057Z,4.50
2022-08-02T20:04:50.213Z,6.18
2022-08-02T20:07:54.783Z,4.20
2022-08-02T20:10:10.762Z,5.18
2022-08-02T20:12:38.981Z,5.03
2022-08-02T20:15:07.949Z,5.38
2022-08-02T20:17:47.739Z,4.78
2022-08-02T20:20:16.074Z,5.20
2022-08-02T20:23:01.477Z,7.20
2022-08-02T20:25:48.661Z,5.93
2022-08-02T20:28:15.350Z,4.60
2022-08-02T20:30:42.048Z,5.28
2022-08-02T20:33:21.341Z,4.40
2022-08-02T20:35:49.293Z,5.57
2022-08-02T20:38:16.417Z,6.53
2022-08-02T20:40:43.463Z,4.55
2022-08-02T20:43:10.552Z,5.35
2022-08-02T20:45:37.158Z,4.43
2022-08-02T20:48:04.012Z,6.28
2022-08-02T20:50:49.289Z,5.10
2022-08-02T20:53:23.687Z,4.68
2022-08-02T20:55:53.747Z,5.15
2022-08-02T20:58:20.435Z,4.88
2022-08-02T21:00:54.031Z,5.03
2022-08-02T21:03:20.725Z,5.80
2022-08-02T21:05:54.918Z,5.00
2022-08-02T21:08:23.465Z,4.50
2022-08-02T21:10:51.979Z,5.78
2022-08-02T21:13:25.923Z,5.15
2022-08-02T21:18:41.311Z,5.05
2022-08-02T21:21:09.403Z,5.47
2022-08-02T21:23:37.467Z,5.18
2022-08-02T21:28:53.089Z,5.07
2022-08-02T21:31:19.694Z,4.72
2022-08-02T21:33:56.826Z,4.28
2022-08-02T21:36:30.367Z,6.22
2022-08-02T21:38:59.967Z,4.45
2022-08-02T21:41:33.709Z,4.67
2022-08-02T21:44:07.182Z,4.35
2022-08-02T21:46:33.781Z,4.90
2022-08-02T21:49:01.986Z,5.28
2022-08-02T21:51:29.110Z,5.35
2022-08-02T21:56:48.712Z,5.80
2022-08-02T21:59:17.296Z,4.97
2022-08-02T22:01:52.924Z,4.85
2022-08-02T22:04:20.302Z,4.28
2022-08-02T22:06:47.108Z,5.50
2022-08-02T22:09:17.706Z,7.43
2022-08-02T22:12:04.014Z,4.70
2022-08-02T22:14:30.603Z,5.03
2022-08-02T22:16:57.405Z,5.07
2022-08-02T22:19:23.994Z,5.87
2022-08-02T22:21:55.256Z,5.03
2022-08-02T22:24:30.190Z,4.20
2022-08-02T22:26:57.681Z,4.45
2022-08-02T22:29:24.443Z,4.32
2022-08-02T22:31:52.118Z,5.93
2022-08-02T22:34:36.690Z,4.28
2022-08-02T22:37:05.964Z,5.88
2022-08-02T22:39:34.576Z,4.32
2022-08-02T22:42:15.540Z,5.85
2022-08-02T22:44:44.225Z,4.67
2022-08-02T22:47:14.535Z,4.78
2022-08-02T22:49:52.876Z,5.35
2022-08-02T22:52:21.573Z,5.43
2022-08-02T22:54:48.400Z,5.93
2022-08-02T22:57:14.998Z,4.00
2022-08-02T22:58:45.839Z,6.68
2022-08-02T22:59:02.195Z,5.13
2022-08-02T22:59:02.659Z,6.43
2022-08-02T22:59:11.720Z,5.53
2022-08-02T22:59:41.903Z,6.40
2022-08-02T23:02:10.235Z,4.30
2022-08-02T23:04:37.649Z,5.18
2022-08-02T23:07:04.783Z,4.63
2022-08-02T23:09:31.524Z,4.83
2022-08-02T23:11:58.190Z,6.82
2022-08-02T23:14:24.820Z,5.95
2022-08-02T23:17:10.314Z,5.90
2022-08-02T23:19:52.291Z,4.25
2022-08-02T23:22:30.133Z,4.37
2022-08-02T23:24:59.928Z,4.65
2022-08-02T23:27:26.668Z,6.43
2022-08-02T23:29:53.284Z,7.40
2022-08-02T23:32:22.970Z,3.97
2022-08-02T23:34:53.072Z,5.93
2022-08-02T23:37:19.754Z,4.30
2022-08-02T23:39:46.517Z,4.72
2022-08-02T23:42:13.235Z,4.68
2022-08-02T23:44:40.089Z,4.43
2022-08-02T23:47:06.747Z,5.57
2022-08-02T23:49:33.413Z,3.72
2022-08-02T23:52:01.928Z,4.50
2022-08-02T23:54:29.241Z,4.68
2022-08-02T23:56:56.312Z,4.63
2022-08-02T23:59:23.159Z,4.90
